Kendall Tamiami Executive Airport
KTMB : rendu visible

Aérodrome :











RETROUVEZ-NOUS SUR...

 
LOGIN :

S'inscrire | Disclaimer

   EN    FR    IT 

 









Légende :    VFR   VFR Marginal   IFR   IFR Intensif   IFR Très Intensif
Visi : 
Plafond : 
>= 8 km
>= 3000ft
5 à 8 km
1000 à 3000 ft
1500m à 5 km
500 à 1000 ft
800 à 1500m
200 à 500 ft
< 800m
< 200 ft
Symboles :   Orages  Brouillard  Fortes neiges  Fortes précipitations  Vent > 20 kt






- Altitude de l'aérodrome : 8 ft


KTMB - Kendall Tamiami Executive

DERNIER METAR :
  • 191853Z 16006KT 10SM SCT038 27/19 A3008 RMK AO2 SLP186 T02670189 $

METARs EXPIRÉS :
  • 191753Z 11006KT 10SM SCT038 26/19 A3011 RMK AO2 SLP195 T02610189 10272 20156 58021 $
  • 191653Z 14006KT 10SM SCT036 25/18 A3014 RMK AO2 SLP205 T02500178 $
  • 191553Z 14010KT 10SM SCT033 26/18 A3016 RMK AO2 SLP212 T02560183 $

TAF KTMB
Valide du 19 à 18h jusqu'au 20 à 18h UTC


191742Z 1918/2018 15008KT P6SM FEW025 SCT250
FM192100 19008KT P6SM FEW025 SCT250
FM200000 VRB04KT P6SM SCT025 BKN250
FM200900 31005KT P6SM FEW015 SCT025 BKN050
PROB30 2010/2015 6SM SHRA FEW007 SCT015 BKN025
FM201500 35008KT P6SM FEW015 SCT024 BKN050



MET'MAP, la Météo Aéronautique d'un coup d'oeil ! - Copyright ORBIFLY Décembre 2007 - Disclaimer

ORBIFLY MET'MAP TEAM :

Programmation & Développement : Alexandra Zaïnal
Sur une idée originale de : Baudouin d'Aumeries
Assistance à la programmation : Marc-Olivier Méhu
Soutien technique & logistique : Manuel Goepfert

Contact : metmap@orbifly.com




SOURCES & CREDITS :

   NOAA       Earth
Advisory